Duchesne, UT (84021)

9:08 PM MDT on July 06, 2015 (GMT -0600)
Cougar Ridge Ranch | | Change Station
CLOSE
Current Station
Personal Weather Station
Location: Duchesne, UT
Elevation: 6959 ft
Nearby Weather Stations

Elev 6959 ft 40.18 °N, 110.64 °W | Updated 9 seconds ago

Mostly Cloudy
Mostly Cloudy
61.0 °F
Feels Like 61.0 °F
N
0.0
Wind Variable Wind from East
Gusts 1.0 mph

Today
High -- | Low -- °F
--% Chance of Precip.
Yesterday
High -- | Low -- °F
Precip. -- in
5:59 AM 8:53 PM
Waning Gibbous, 69% visible
Pressure 29.91 in
Visibility 10.0 miles
Clouds Clear
Dew Point 47 °F
Humidity 59%
Rainfall 0.00 in
Snow Depth Not available.
UV 0.0 out of 12
Pollen 4.70 out of 12
Air Quality Not available.
Flu Activity Not available.
METAR KPUC 070253Z AUTO 36003KT 10SM CLR 21/09 A3017 RMK AO2 SLP129 T02110094 57004 TSNO

More Conditions Fewer Conditions

Pressure 29.91 in
Visibility 10.0 miles
Clouds Clear
Dew Point 47 °F
Humidity 59%
Rainfall 0.00 in
Snow Depth Not available.
UV 0.0 out of 12
Pollen 4.70 out of 12
Air Quality Not available.
Flu Activity Not available.
METAR KPUC 070253Z AUTO 36003KT 10SM CLR 21/09 A3017 RMK AO2 SLP129 T02110094 57004 TSNO

More Conditions Fewer Conditions

Nowcast | as of 8:45 PM MDT on July 6, 2015

Widely scattered showers and a few thunderstorms continue across parts of northern Utah and southwest Wyoming this evening. At 840 PM the strongest storms were near knolls along I-80 and west of Dugway. The showers and thunderstorms were moving east southeast. Expect locally heavy rain...cloud to ground lightning... and gusty winds. Small hail is also possible.

×

10-Day Weather Forecast

×

Almanac

Astronomy

Jul. 06, 2015 Rise Set
Actual Time
Civil Twilight
Nautical Twilight
Astronomical Twilight
Moon
Length of Visible Light
Length of Day
Tomorrow will be .
, % of the Moon is Illuminated

Today's Extremes

State Highs State Lows

Community

WunderPhotos

Upload Photos

1,835,701 photos uploaded!

WunderBlogs® & News

Nearby

Air Quality

  Air Quality AQ Index Pollutant
Not available.

Snow Depth

Station Depth Elevation

Earthquake Activity

City Distance Mag. Time & Date
Minimum magnitude displayed is 2.5.

Coastal Water Temperatures

Place Temperature

Stations

Nearby Weather Stations

Station Location Temp. Windchill Dew Point Humidity Wind Precip. Elev Updated Type